Terminal Aerodrome Forecast
Issued by NWS

Home | Current Version | Previous Version | Text Only | Print | Product List | Glossary On
Versions: 1 2 3 4 5 6 7 8 9 10 11 12 13 14 15 16 17 18 19 20 21 22 23 24 25 26 27
000
FTUS44 KOUN 061120
TAFHBR
TAF
KHBR 061120Z 0612/0712 18017G23KT P6SM BKN010 OVC018
     FM061600 19020G30KT P6SM SCT050
     FM062300 18016G28KT P6SM BKN030
      TEMPO 0623/0703 6SM -TSRA BKN025CB
     FM070300 19012G22KT P6SM SCT020 BKN040
      TEMPO 0703/0706 6SM -TSRA OVC025CB=

USA.gov is the U.S. government's official web portal to all federal, state and local government web resources and services.